sensor_id;sensor_type;location;lat;lon;timestamp;temperature;humidity
60033;DHT22;45905;50.570;10.428;2023-05-01T00:01:33;7.30;84.60
60033;DHT22;45905;50.570;10.428;2023-05-01T00:04:00;7.50;85.60
60033;DHT22;45905;50.570;10.428;2023-05-01T00:06:27;7.10;85.80
60033;DHT22;45905;50.570;10.428;2023-05-01T00:08:55;6.90;85.90
60033;DHT22;45905;50.570;10.428;2023-05-01T00:13:50;7.40;89.60
60033;DHT22;45905;50.570;10.428;2023-05-01T00:16:17;7.20;90.20
60033;DHT22;45905;50.570;10.428;2023-05-01T00:23:39;6.80;92.00
60033;DHT22;45905;50.570;10.428;2023-05-01T00:31:02;7.00;93.20
60033;DHT22;45905;50.570;10.428;2023-05-01T00:43:20;7.00;93.60
60033;DHT22;45905;50.570;10.428;2023-05-01T00:50:44;6.80;88.10
60033;DHT22;45905;50.570;10.428;2023-05-01T00:53:13;6.40;92.70
60033;DHT22;45905;50.570;10.428;2023-05-01T00:55:41;6.80;86.80
60033;DHT22;45905;50.570;10.428;2023-05-01T00:58:09;6.70;87.20
60033;DHT22;45905;50.570;10.428;2023-05-01T01:03:05;6.80;88.00
60033;DHT22;45905;50.570;10.428;2023-05-01T01:05:37;6.60;86.90
60033;DHT22;45905;50.570;10.428;2023-05-01T01:08:22;6.40;91.50
60033;DHT22;45905;50.570;10.428;2023-05-01T01:14:16;6.50;88.60
60033;DHT22;45905;50.570;10.428;2023-05-01T01:17:03;6.90;94.00
60033;DHT22;45905;50.570;10.428;2023-05-01T01:23:03;6.60;94.60
60033;DHT22;45905;50.570;10.428;2023-05-01T01:32:47;6.20;90.70
60033;DHT22;45905;50.570;10.428;2023-05-01T01:35:47;6.10;93.10
60033;DHT22;45905;50.570;10.428;2023-05-01T01:38:36;6.20;90.00
60033;DHT22;45905;50.570;10.428;2023-05-01T01:41:12;6.40;89.80
60033;DHT22;45905;50.570;10.428;2023-05-01T01:43:57;6.90;92.50
60033;DHT22;45905;50.570;10.428;2023-05-01T01:46:30;6.40;92.00
60033;DHT22;45905;50.570;10.428;2023-05-01T01:49:12;6.30;92.40
60033;DHT22;45905;50.570;10.428;2023-05-01T01:51:48;6.20;90.30
60033;DHT22;45905;50.570;10.428;2023-05-01T01:54:21;6.20;90.40
60033;DHT22;45905;50.570;10.428;2023-05-01T01:56:52;6.60;95.10
60033;DHT22;45905;50.570;10.428;2023-05-01T01:59:23;6.20;90.40
60033;DHT22;45905;50.570;10.428;2023-05-01T02:01:55;5.80;95.10
60033;DHT22;45905;50.570;10.428;2023-05-01T02:04:25;6.40;91.50
60033;DHT22;45905;50.570;10.428;2023-05-01T02:06:55;6.20;90.60
60033;DHT22;45905;50.570;10.428;2023-05-01T02:09:25;6.00;90.60
60033;DHT22;45905;50.570;10.428;2023-05-01T02:11:56;6.30;91.00
60033;DHT22;45905;50.570;10.428;2023-05-01T02:14:26;6.00;90.40
60033;DHT22;45905;50.570;10.428;2023-05-01T02:16:54;5.90;90.10
60033;DHT22;45905;50.570;10.428;2023-05-01T02:19:25;5.90;90.20
60033;DHT22;45905;50.570;10.428;2023-05-01T02:21:56;5.90;90.70
60033;DHT22;45905;50.570;10.428;2023-05-01T02:24:26;5.80;91.00
60033;DHT22;45905;50.570;10.428;2023-05-01T02:27:10;5.60;96.40
60033;DHT22;45905;50.570;10.428;2023-05-01T02:34:36;6.20;95.10
60033;DHT22;45905;50.570;10.428;2023-05-01T02:37:05;5.50;94.60
60033;DHT22;45905;50.570;10.428;2023-05-01T02:39:38;6.00;94.90
60033;DHT22;45905;50.570;10.428;2023-05-01T02:42:07;5.70;91.10
60033;DHT22;45905;50.570;10.428;2023-05-01T02:44:50;5.70;91.10
60033;DHT22;45905;50.570;10.428;2023-05-01T02:47:22;5.60;90.80
60033;DHT22;45905;50.570;10.428;2023-05-01T02:49:50;5.60;91.00
60033;DHT22;45905;50.570;10.428;2023-05-01T02:52:20;5.90;95.90
60033;DHT22;45905;50.570;10.428;2023-05-01T02:55:00;5.40;91.30
60033;DHT22;45905;50.570;10.428;2023-05-01T02:57:28;5.50;90.90
60033;DHT22;45905;50.570;10.428;2023-05-01T03:02:23;5.60;91.80
60033;DHT22;45905;50.570;10.428;2023-05-01T03:04:50;5.60;96.30
60033;DHT22;45905;50.570;10.428;2023-05-01T03:19:36;5.20;92.10
60033;DHT22;45905;50.570;10.428;2023-05-01T03:24:30;5.40;92.10
60033;DHT22;45905;50.570;10.428;2023-05-01T03:39:19;5.30;93.10
60033;DHT22;45905;50.570;10.428;2023-05-01T03:49:46;5.40;92.30
60033;DHT22;45905;50.570;10.428;2023-05-01T03:52:13;5.20;93.10
60033;DHT22;45905;50.570;10.428;2023-05-01T03:54:41;5.30;94.10
60033;DHT22;45905;50.570;10.428;2023-05-01T04:02:21;4.90;92.20
60033;DHT22;45905;50.570;10.428;2023-05-01T04:04:49;5.10;91.80
60033;DHT22;45905;50.570;10.428;2023-05-01T04:09:46;5.00;92.10
60033;DHT22;45905;50.570;10.428;2023-05-01T04:12:14;5.10;93.30
60033;DHT22;45905;50.570;10.428;2023-05-01T04:17:11;4.70;92.50
60033;DHT22;45905;50.570;10.428;2023-05-01T04:19:38;4.80;92.50
60033;DHT22;45905;50.570;10.428;2023-05-01T04:22:05;5.10;94.50
60033;DHT22;45905;50.570;10.428;2023-05-01T04:31:59;4.70;96.40
60033;DHT22;45905;50.570;10.428;2023-05-01T04:36:55;5.10;96.80
60033;DHT22;45905;50.570;10.428;2023-05-01T04:44:19;5.00;96.30
60033;DHT22;45905;50.570;10.428;2023-05-01T04:46:46;5.20;96.40
60033;DHT22;45905;50.570;10.428;2023-05-01T04:49:13;4.70;94.00
60033;DHT22;45905;50.570;10.428;2023-05-01T04:51:40;4.50;95.60
60033;DHT22;45905;50.570;10.428;2023-05-01T04:54:10;4.50;95.60
60033;DHT22;45905;50.570;10.428;2023-05-01T04:56:38;4.90;93.20
60033;DHT22;45905;50.570;10.428;2023-05-01T04:59:05;4.80;94.90
60033;DHT22;45905;50.570;10.428;2023-05-01T05:04:01;5.00;94.00
60033;DHT22;45905;50.570;10.428;2023-05-01T05:16:25;4.70;95.40
60033;DHT22;45905;50.570;10.428;2023-05-01T05:18:54;5.30;95.80
60033;DHT22;45905;50.570;10.428;2023-05-01T05:21:25;4.90;94.90
60033;DHT22;45905;50.570;10.428;2023-05-01T05:23:54;5.30;95.70
60033;DHT22;45905;50.570;10.428;2023-05-01T05:26:22;5.00;95.70
60033;DHT22;45905;50.570;10.428;2023-05-01T05:28:49;5.10;94.60
60033;DHT22;45905;50.570;10.428;2023-05-01T05:31:16;5.20;98.40
60033;DHT22;45905;50.570;10.428;2023-05-01T05:41:13;5.80;97.00
60033;DHT22;45905;50.570;10.428;2023-05-01T05:48:37;5.80;96.60
60033;DHT22;45905;50.570;10.428;2023-05-01T05:58:29;5.90;99.20
60033;DHT22;45905;50.570;10.428;2023-05-01T06:00:57;6.10;97.20
60033;DHT22;45905;50.570;10.428;2023-05-01T06:10:53;8.90;97.00
60033;DHT22;45905;50.570;10.428;2023-05-01T06:13:20;6.30;99.60
60033;DHT22;45905;50.570;10.428;2023-05-01T06:15:48;6.10;96.60
60033;DHT22;45905;50.570;10.428;2023-05-01T06:23:13;6.70;98.10
60033;DHT22;45905;50.570;10.428;2023-05-01T06:28:43;6.70;95.80
60033;DHT22;45905;50.570;10.428;2023-05-01T06:38:48;6.60;99.90
60033;DHT22;45905;50.570;10.428;2023-05-01T06:41:15;7.00;99.90
60033;DHT22;45905;50.570;10.428;2023-05-01T06:43:44;7.00;99.40
60033;DHT22;45905;50.570;10.428;2023-05-01T06:51:07;7.80;96.50
60033;DHT22;45905;50.570;10.428;2023-05-01T06:53:34;8.40;99.90
60033;DHT22;45905;50.570;10.428;2023-05-01T07:28:10;8.80;91.90
60033;DHT22;45905;50.570;10.428;2023-05-01T07:30:37;8.90;92.30
60033;DHT22;45905;50.570;10.428;2023-05-01T07:33:04;9.40;92.00
60033;DHT22;45905;50.570;10.428;2023-05-01T07:35:31;9.80;92.00
60033;DHT22;45905;50.570;10.428;2023-05-01T07:50:16;10.40;96.40
60033;DHT22;45905;50.570;10.428;2023-05-01T08:00:07;10.40;96.00
60033;DHT22;45905;50.570;10.428;2023-05-01T08:05:09;10.50;93.30
60033;DHT22;45905;50.570;10.428;2023-05-01T08:17:27;10.90;88.40
60033;DHT22;45905;50.570;10.428;2023-05-01T08:19:54;10.70;86.10
60033;DHT22;45905;50.570;10.428;2023-05-01T08:24:50;11.30;88.20
60033;DHT22;45905;50.570;10.428;2023-05-01T08:27:18;11.40;86.20
60033;DHT22;45905;50.570;10.428;2023-05-01T08:29:45;11.50;86.70
60033;DHT22;45905;50.570;10.428;2023-05-01T08:32:14;11.70;86.30
60033;DHT22;45905;50.570;10.428;2023-05-01T08:34:41;11.70;85.70
60033;DHT22;45905;50.570;10.428;2023-05-01T08:37:08;11.80;85.40
60033;DHT22;45905;50.570;10.428;2023-05-01T08:42:03;12.20;86.40
60033;DHT22;45905;50.570;10.428;2023-05-01T08:44:31;11.80;85.50
60033;DHT22;45905;50.570;10.428;2023-05-01T08:47:16;12.20;85.00
60033;DHT22;45905;50.570;10.428;2023-05-01T08:49:44;12.40;82.10
60033;DHT22;45905;50.570;10.428;2023-05-01T08:52:14;12.90;81.90
60033;DHT22;45905;50.570;10.428;2023-05-01T08:54:43;13.10;84.80
60033;DHT22;45905;50.570;10.428;2023-05-01T08:57:12;13.40;83.10
60033;DHT22;45905;50.570;10.428;2023-05-01T08:59:41;12.80;81.90
60033;DHT22;45905;50.570;10.428;2023-05-01T09:02:09;13.10;82.30
60033;DHT22;45905;50.570;10.428;2023-05-01T09:04:38;13.10;83.70
60033;DHT22;45905;50.570;10.428;2023-05-01T09:07:07;13.20;82.40
60033;DHT22;45905;50.570;10.428;2023-05-01T09:09:35;13.40;80.50
60033;DHT22;45905;50.570;10.428;2023-05-01T09:12:22;13.40;79.50
60033;DHT22;45905;50.570;10.428;2023-05-01T09:14:52;13.90;77.70
60033;DHT22;45905;50.570;10.428;2023-05-01T09:17:22;13.70;77.40
60033;DHT22;45905;50.570;10.428;2023-05-01T09:19:50;13.70;77.60
60033;DHT22;45905;50.570;10.428;2023-05-01T09:22:18;13.80;78.60
60033;DHT22;45905;50.570;10.428;2023-05-01T09:24:46;13.80;79.10
60033;DHT22;45905;50.570;10.428;2023-05-01T09:27:14;13.90;78.90
60033;DHT22;45905;50.570;10.428;2023-05-01T09:29:44;13.90;78.30
60033;DHT22;45905;50.570;10.428;2023-05-01T09:32:25;14.00;77.30
60033;DHT22;45905;50.570;10.428;2023-05-01T09:35:16;14.10;77.10
60033;DHT22;45905;50.570;10.428;2023-05-01T09:37:48;14.20;77.30
60033;DHT22;45905;50.570;10.428;2023-05-01T09:40:15;14.40;75.60
60033;DHT22;45905;50.570;10.428;2023-05-01T09:42:50;14.40;75.90
60033;DHT22;45905;50.570;10.428;2023-05-01T09:45:18;14.50;74.60
60033;DHT22;45905;50.570;10.428;2023-05-01T09:47:46;14.50;73.30
60033;DHT22;45905;50.570;10.428;2023-05-01T09:50:31;14.60;73.90
60033;DHT22;45905;50.570;10.428;2023-05-01T09:53:01;14.70;73.80
60033;DHT22;45905;50.570;10.428;2023-05-01T09:55:31;14.70;73.10
60033;DHT22;45905;50.570;10.428;2023-05-01T09:57:59;14.80;72.50
60033;DHT22;45905;50.570;10.428;2023-05-01T10:00:26;14.90;73.70
60033;DHT22;45905;50.570;10.428;2023-05-01T10:02:53;15.00;73.30
60033;DHT22;45905;50.570;10.428;2023-05-01T10:05:21;15.10;71.00
60033;DHT22;45905;50.570;10.428;2023-05-01T10:08:00;15.20;69.90
60033;DHT22;45905;50.570;10.428;2023-05-01T10:10:29;15.20;68.90
60033;DHT22;45905;50.570;10.428;2023-05-01T10:13:12;15.30;68.20
60033;DHT22;45905;50.570;10.428;2023-05-01T10:15:40;15.30;70.60
60033;DHT22;45905;50.570;10.428;2023-05-01T10:18:09;15.40;70.50
60033;DHT22;45905;50.570;10.428;2023-05-01T10:20:37;15.40;67.10
60033;DHT22;45905;50.570;10.428;2023-05-01T10:23:05;15.40;68.20
60033;DHT22;45905;50.570;10.428;2023-05-01T10:25:32;15.50;69.90
60033;DHT22;45905;50.570;10.428;2023-05-01T10:28:02;15.50;68.00
60033;DHT22;45905;50.570;10.428;2023-05-01T10:30:30;15.50;66.80
60033;DHT22;45905;50.570;10.428;2023-05-01T10:32:58;15.60;67.10
60033;DHT22;45905;50.570;10.428;2023-05-01T10:35:33;15.60;66.70
60033;DHT22;45905;50.570;10.428;2023-05-01T10:38:06;15.60;66.90
60033;DHT22;45905;50.570;10.428;2023-05-01T10:43:27;15.70;65.80
60033;DHT22;45905;50.570;10.428;2023-05-01T10:51:19;15.80;65.30
60033;DHT22;45905;50.570;10.428;2023-05-01T10:56:43;15.80;64.60
60033;DHT22;45905;50.570;10.428;2023-05-01T10:59:10;15.80;65.00
60033;DHT22;45905;50.570;10.428;2023-05-01T11:01:42;15.80;64.00
60033;DHT22;45905;50.570;10.428;2023-05-01T11:12:46;15.90;64.90
60033;DHT22;45905;50.570;10.428;2023-05-01T11:15:08;16.00;63.60
60033;DHT22;45905;50.570;10.428;2023-05-01T11:20:44;16.20;63.00
60033;DHT22;45905;50.570;10.428;2023-05-01T11:23:03;16.20;64.10
60033;DHT22;45905;50.570;10.428;2023-05-01T11:25:30;16.20;62.60
60033;DHT22;45905;50.570;10.428;2023-05-01T11:28:02;16.70;64.10
60033;DHT22;45905;50.570;10.428;2023-05-01T11:30:36;16.20;65.20
60033;DHT22;45905;50.570;10.428;2023-05-01T11:33:04;16.20;64.20
60033;DHT22;45905;50.570;10.428;2023-05-01T11:35:37;16.20;65.20
60033;DHT22;45905;50.570;10.428;2023-05-01T11:38:04;16.30;65.20
60033;DHT22;45905;50.570;10.428;2023-05-01T11:40:34;16.30;66.40
60033;DHT22;45905;50.570;10.428;2023-05-01T11:43:03;16.30;66.40
60033;DHT22;45905;50.570;10.428;2023-05-01T11:45:32;16.40;65.30
60033;DHT22;45905;50.570;10.428;2023-05-01T11:48:01;16.40;66.70
60033;DHT22;45905;50.570;10.428;2023-05-01T11:50:35;16.50;67.00
60033;DHT22;45905;50.570;10.428;2023-05-01T11:53:10;16.50;66.80
60033;DHT22;45905;50.570;10.428;2023-05-01T11:55:40;16.60;65.60
60033;DHT22;45905;50.570;10.428;2023-05-01T11:58:08;16.60;65.00
60033;DHT22;45905;50.570;10.428;2023-05-01T12:00:39;16.60;64.10
60033;DHT22;45905;50.570;10.428;2023-05-01T12:03:11;16.60;64.90
60033;DHT22;45905;50.570;10.428;2023-05-01T12:05:42;16.60;64.00
60033;DHT22;45905;50.570;10.428;2023-05-01T12:08:19;16.60;64.70
60033;DHT22;45905;50.570;10.428;2023-05-01T12:10:54;16.60;64.30
60033;DHT22;45905;50.570;10.428;2023-05-01T12:13:24;16.50;64.30
60033;DHT22;45905;50.570;10.428;2023-05-01T12:15:53;16.60;64.40
60033;DHT22;45905;50.570;10.428;2023-05-01T12:18:22;16.60;65.30
60033;DHT22;45905;50.570;10.428;2023-05-01T12:20:52;16.60;64.80
60033;DHT22;45905;50.570;10.428;2023-05-01T12:23:34;16.70;63.90
60033;DHT22;45905;50.570;10.428;2023-05-01T12:26:18;16.70;64.10
60033;DHT22;45905;50.570;10.428;2023-05-01T12:29:00;16.80;64.00
60033;DHT22;45905;50.570;10.428;2023-05-01T12:31:29;16.80;64.30
60033;DHT22;45905;50.570;10.428;2023-05-01T12:33:59;16.90;64.60
60033;DHT22;45905;50.570;10.428;2023-05-01T12:36:29;16.90;64.40
60033;DHT22;45905;50.570;10.428;2023-05-01T12:39:06;17.00;62.80
60033;DHT22;45905;50.570;10.428;2023-05-01T12:41:46;17.00;61.90
60033;DHT22;45905;50.570;10.428;2023-05-01T12:44:27;16.90;62.30
60033;DHT22;45905;50.570;10.428;2023-05-01T12:47:01;16.90;62.40
60033;DHT22;45905;50.570;10.428;2023-05-01T12:49:34;17.00;61.50
60033;DHT22;45905;50.570;10.428;2023-05-01T12:52:04;17.00;62.60
60033;DHT22;45905;50.570;10.428;2023-05-01T12:54:37;17.00;62.40
60033;DHT22;45905;50.570;10.428;2023-05-01T12:57:11;17.10;63.70
60033;DHT22;45905;50.570;10.428;2023-05-01T12:59:45;17.10;61.60
60033;DHT22;45905;50.570;10.428;2023-05-01T13:02:14;17.20;61.30
60033;DHT22;45905;50.570;10.428;2023-05-01T13:04:44;17.20;61.50
60033;DHT22;45905;50.570;10.428;2023-05-01T13:07:14;17.20;62.40
60033;DHT22;45905;50.570;10.428;2023-05-01T13:09:56;17.30;64.50
60033;DHT22;45905;50.570;10.428;2023-05-01T13:12:26;17.30;61.60
60033;DHT22;45905;50.570;10.428;2023-05-01T13:14:54;17.30;60.00
60033;DHT22;45905;50.570;10.428;2023-05-01T13:17:26;17.20;60.30
60033;DHT22;45905;50.570;10.428;2023-05-01T13:20:03;17.20;61.00
60033;DHT22;45905;50.570;10.428;2023-05-01T13:22:35;17.20;61.30
60033;DHT22;45905;50.570;10.428;2023-05-01T13:25:13;17.10;60.10
60033;DHT22;45905;50.570;10.428;2023-05-01T13:27:50;17.10;60.40
60033;DHT22;45905;50.570;10.428;2023-05-01T13:30:20;17.10;60.60
60033;DHT22;45905;50.570;10.428;2023-05-01T13:32:57;17.10;59.80
60033;DHT22;45905;50.570;10.428;2023-05-01T13:35:25;17.00;59.70
60033;DHT22;45905;50.570;10.428;2023-05-01T13:37:53;16.90;59.90
60033;DHT22;45905;50.570;10.428;2023-05-01T13:40:23;16.80;60.00
60033;DHT22;45905;50.570;10.428;2023-05-01T13:42:53;16.80;60.10
60033;DHT22;45905;50.570;10.428;2023-05-01T13:45:20;16.80;60.80
60033;DHT22;45905;50.570;10.428;2023-05-01T13:47:48;16.80;61.20
60033;DHT22;45905;50.570;10.428;2023-05-01T13:50:17;16.70;60.50
60033;DHT22;45905;50.570;10.428;2023-05-01T13:52:45;16.60;60.10
60033;DHT22;45905;50.570;10.428;2023-05-01T13:55:13;16.60;61.10
60033;DHT22;45905;50.570;10.428;2023-05-01T13:57:40;16.50;60.50
60033;DHT22;45905;50.570;10.428;2023-05-01T14:00:13;16.50;60.50
60033;DHT22;45905;50.570;10.428;2023-05-01T14:02:46;16.50;61.00
60033;DHT22;45905;50.570;10.428;2023-05-01T14:05:15;16.40;61.90
60033;DHT22;45905;50.570;10.428;2023-05-01T14:07:56;16.40;62.20
60033;DHT22;45905;50.570;10.428;2023-05-01T14:10:26;16.40;62.80
60033;DHT22;45905;50.570;10.428;2023-05-01T14:12:58;16.40;62.80
60033;DHT22;45905;50.570;10.428;2023-05-01T14:15:26;16.40;63.20
60033;DHT22;45905;50.570;10.428;2023-05-01T14:17:54;16.30;62.80
60033;DHT22;45905;50.570;10.428;2023-05-01T14:20:24;16.30;62.60
60033;DHT22;45905;50.570;10.428;2023-05-01T14:22:51;16.30;62.80
60033;DHT22;45905;50.570;10.428;2023-05-01T14:25:32;16.30;63.20
60033;DHT22;45905;50.570;10.428;2023-05-01T14:28:04;16.20;63.50
60033;DHT22;45905;50.570;10.428;2023-05-01T14:30:36;16.20;61.20
60033;DHT22;45905;50.570;10.428;2023-05-01T14:33:09;16.10;62.50
60033;DHT22;45905;50.570;10.428;2023-05-01T14:35:47;16.00;63.50
60033;DHT22;45905;50.570;10.428;2023-05-01T14:38:17;16.00;63.20
60033;DHT22;45905;50.570;10.428;2023-05-01T14:40:46;16.00;63.80
60033;DHT22;45905;50.570;10.428;2023-05-01T14:43:18;16.00;63.30
60033;DHT22;45905;50.570;10.428;2023-05-01T14:45:47;16.00;62.70
60033;DHT22;45905;50.570;10.428;2023-05-01T14:48:32;15.90;63.00
60033;DHT22;45905;50.570;10.428;2023-05-01T14:51:03;15.80;62.90
60033;DHT22;45905;50.570;10.428;2023-05-01T14:53:32;15.70;62.60
60033;DHT22;45905;50.570;10.428;2023-05-01T14:55:59;15.60;63.30
60033;DHT22;45905;50.570;10.428;2023-05-01T14:58:26;15.60;63.60
60033;DHT22;45905;50.570;10.428;2023-05-01T15:00:53;15.50;63.20
60033;DHT22;45905;50.570;10.428;2023-05-01T15:03:20;15.50;63.60
60033;DHT22;45905;50.570;10.428;2023-05-01T15:05:48;15.50;64.40
60033;DHT22;45905;50.570;10.428;2023-05-01T15:08:15;15.40;64.50
60033;DHT22;45905;50.570;10.428;2023-05-01T15:10:43;15.50;64.80
60033;DHT22;45905;50.570;10.428;2023-05-01T15:13:11;15.50;65.70
60033;DHT22;45905;50.570;10.428;2023-05-01T15:15:38;15.50;64.80
60033;DHT22;45905;50.570;10.428;2023-05-01T15:18:05;15.50;65.20
60033;DHT22;45905;50.570;10.428;2023-05-01T15:20:33;15.40;65.60
60033;DHT22;45905;50.570;10.428;2023-05-01T15:23:00;15.40;66.10
60033;DHT22;45905;50.570;10.428;2023-05-01T15:25:27;15.40;66.50
60033;DHT22;45905;50.570;10.428;2023-05-01T15:27:54;15.40;66.70
60033;DHT22;45905;50.570;10.428;2023-05-01T15:30:22;15.50;67.20
60033;DHT22;45905;50.570;10.428;2023-05-01T15:32:50;15.50;67.70
60033;DHT22;45905;50.570;10.428;2023-05-01T15:35:18;15.50;67.80
60033;DHT22;45905;50.570;10.428;2023-05-01T15:37:47;15.50;68.00
60033;DHT22;45905;50.570;10.428;2023-05-01T15:40:14;15.50;68.00
60033;DHT22;45905;50.570;10.428;2023-05-01T15:42:41;15.40;67.90
60033;DHT22;45905;50.570;10.428;2023-05-01T15:45:09;15.40;68.00
60033;DHT22;45905;50.570;10.428;2023-05-01T15:47:36;15.40;68.40
60033;DHT22;45905;50.570;10.428;2023-05-01T15:50:08;15.40;68.70
60033;DHT22;45905;50.570;10.428;2023-05-01T15:52:38;15.30;68.90
60033;DHT22;45905;50.570;10.428;2023-05-01T15:55:06;15.30;69.30
60033;DHT22;45905;50.570;10.428;2023-05-01T15:57:34;15.30;69.90
60033;DHT22;45905;50.570;10.428;2023-05-01T16:00:01;15.30;70.20
60033;DHT22;45905;50.570;10.428;2023-05-01T16:02:30;15.20;70.70
60033;DHT22;45905;50.570;10.428;2023-05-01T16:04:59;15.20;71.20
60033;DHT22;45905;50.570;10.428;2023-05-01T16:07:28;15.10;71.40
60033;DHT22;45905;50.570;10.428;2023-05-01T16:09:56;15.10;72.00
60033;DHT22;45905;50.570;10.428;2023-05-01T16:12:26;15.00;72.10
60033;DHT22;45905;50.570;10.428;2023-05-01T16:14:54;15.00;72.80
60033;DHT22;45905;50.570;10.428;2023-05-01T16:17:22;14.90;73.40
60033;DHT22;45905;50.570;10.428;2023-05-01T16:19:49;14.90;73.70
60033;DHT22;45905;50.570;10.428;2023-05-01T16:22:18;14.80;74.40
60033;DHT22;45905;50.570;10.428;2023-05-01T16:24:47;14.80;74.60
60033;DHT22;45905;50.570;10.428;2023-05-01T16:27:17;14.70;74.80
60033;DHT22;45905;50.570;10.428;2023-05-01T16:29:44;14.70;75.50
60033;DHT22;45905;50.570;10.428;2023-05-01T16:32:11;14.70;75.70
60033;DHT22;45905;50.570;10.428;2023-05-01T16:34:42;14.70;75.80
60033;DHT22;45905;50.570;10.428;2023-05-01T16:37:12;14.70;75.90
60033;DHT22;45905;50.570;10.428;2023-05-01T16:39:40;14.60;75.80
60033;DHT22;45905;50.570;10.428;2023-05-01T16:42:11;14.60;76.20
60033;DHT22;45905;50.570;10.428;2023-05-01T16:44:39;14.60;76.40
60033;DHT22;45905;50.570;10.428;2023-05-01T16:47:06;14.60;76.60
60033;DHT22;45905;50.570;10.428;2023-05-01T16:49:39;14.60;76.80
60033;DHT22;45905;50.570;10.428;2023-05-01T16:52:12;14.50;76.90
60033;DHT22;45905;50.570;10.428;2023-05-01T16:54:41;14.50;76.90
60033;DHT22;45905;50.570;10.428;2023-05-01T16:57:08;14.50;76.80
60033;DHT22;45905;50.570;10.428;2023-05-01T16:59:36;14.50;77.00
60033;DHT22;45905;50.570;10.428;2023-05-01T17:02:03;14.50;77.20
60033;DHT22;45905;50.570;10.428;2023-05-01T17:04:31;14.50;77.30
60033;DHT22;45905;50.570;10.428;2023-05-01T17:06:59;14.40;77.40
60033;DHT22;45905;50.570;10.428;2023-05-01T17:09:26;14.40;77.40
60033;DHT22;45905;50.570;10.428;2023-05-01T17:11:54;14.40;77.40
60033;DHT22;45905;50.570;10.428;2023-05-01T17:14:22;14.40;77.40
60033;DHT22;45905;50.570;10.428;2023-05-01T17:16:50;14.40;77.70
60033;DHT22;45905;50.570;10.428;2023-05-01T17:19:17;14.40;78.20
60033;DHT22;45905;50.570;10.428;2023-05-01T17:21:44;14.40;78.50
60033;DHT22;45905;50.570;10.428;2023-05-01T17:24:11;14.40;78.60
60033;DHT22;45905;50.570;10.428;2023-05-01T17:26:39;14.30;78.80
60033;DHT22;45905;50.570;10.428;2023-05-01T17:29:07;14.30;79.30
60033;DHT22;45905;50.570;10.428;2023-05-01T17:31:34;14.20;79.90
60033;DHT22;45905;50.570;10.428;2023-05-01T17:34:02;14.20;80.00
60033;DHT22;45905;50.570;10.428;2023-05-01T17:36:29;14.20;80.00
60033;DHT22;45905;50.570;10.428;2023-05-01T17:38:57;14.20;80.20
60033;DHT22;45905;50.570;10.428;2023-05-01T17:41:27;14.20;80.20
60033;DHT22;45905;50.570;10.428;2023-05-01T17:43:54;14.20;80.20
60033;DHT22;45905;50.570;10.428;2023-05-01T17:46:21;14.20;80.20
60033;DHT22;45905;50.570;10.428;2023-05-01T17:48:48;14.30;80.20
60033;DHT22;45905;50.570;10.428;2023-05-01T17:51:16;14.30;79.80
60033;DHT22;45905;50.570;10.428;2023-05-01T17:53:43;14.20;78.70
60033;DHT22;45905;50.570;10.428;2023-05-01T17:56:11;14.20;79.00
60033;DHT22;45905;50.570;10.428;2023-05-01T17:58:38;14.20;79.10
60033;DHT22;45905;50.570;10.428;2023-05-01T18:01:06;14.20;79.00
60033;DHT22;45905;50.570;10.428;2023-05-01T18:03:33;14.20;79.10
60033;DHT22;45905;50.570;10.428;2023-05-01T18:06:01;14.10;79.10
60033;DHT22;45905;50.570;10.428;2023-05-01T18:08:30;14.10;79.20
60033;DHT22;45905;50.570;10.428;2023-05-01T18:10:57;14.10;79.10
60033;DHT22;45905;50.570;10.428;2023-05-01T18:13:24;14.10;79.10
60033;DHT22;45905;50.570;10.428;2023-05-01T18:15:54;14.10;79.20
60033;DHT22;45905;50.570;10.428;2023-05-01T18:18:22;14.10;79.20
60033;DHT22;45905;50.570;10.428;2023-05-01T18:20:49;14.00;79.00
60033;DHT22;45905;50.570;10.428;2023-05-01T18:23:16;14.00;79.00
60033;DHT22;45905;50.570;10.428;2023-05-01T18:25:44;13.90;79.70
60033;DHT22;45905;50.570;10.428;2023-05-01T18:28:12;13.80;79.70
60033;DHT22;45905;50.570;10.428;2023-05-01T18:30:42;13.70;79.90
60033;DHT22;45905;50.570;10.428;2023-05-01T18:33:09;13.70;80.00
60033;DHT22;45905;50.570;10.428;2023-05-01T18:35:40;13.70;80.00
60033;DHT22;45905;50.570;10.428;2023-05-01T18:38:08;13.60;80.00
60033;DHT22;45905;50.570;10.428;2023-05-01T18:40:36;13.60;80.10
60033;DHT22;45905;50.570;10.428;2023-05-01T18:43:03;13.50;80.00
60033;DHT22;45905;50.570;10.428;2023-05-01T18:45:30;13.50;80.00
60033;DHT22;45905;50.570;10.428;2023-05-01T18:47:58;13.40;80.40
60033;DHT22;45905;50.570;10.428;2023-05-01T18:50:26;13.30;80.90
60033;DHT22;45905;50.570;10.428;2023-05-01T18:52:54;13.30;81.10
60033;DHT22;45905;50.570;10.428;2023-05-01T18:55:21;13.20;80.60
60033;DHT22;45905;50.570;10.428;2023-05-01T18:57:49;13.10;80.60
60033;DHT22;45905;50.570;10.428;2023-05-01T19:00:16;13.00;80.70
60033;DHT22;45905;50.570;10.428;2023-05-01T19:02:44;12.90;80.80
60033;DHT22;45905;50.570;10.428;2023-05-01T19:05:18;12.80;80.90
60033;DHT22;45905;50.570;10.428;2023-05-01T19:07:46;12.80;81.50
60033;DHT22;45905;50.570;10.428;2023-05-01T19:10:13;12.70;82.10
60033;DHT22;45905;50.570;10.428;2023-05-01T19:12:40;12.60;81.90
60033;DHT22;45905;50.570;10.428;2023-05-01T19:15:08;12.60;82.40
60033;DHT22;45905;50.570;10.428;2023-05-01T19:17:35;12.50;82.60
60033;DHT22;45905;50.570;10.428;2023-05-01T19:20:03;12.40;83.00
60033;DHT22;45905;50.570;10.428;2023-05-01T19:22:31;12.40;82.90
60033;DHT22;45905;50.570;10.428;2023-05-01T19:24:58;12.30;83.00
60033;DHT22;45905;50.570;10.428;2023-05-01T19:27:26;12.20;83.60
60033;DHT22;45905;50.570;10.428;2023-05-01T19:29:53;12.10;83.60
60033;DHT22;45905;50.570;10.428;2023-05-01T19:32:20;12.00;83.30
60033;DHT22;45905;50.570;10.428;2023-05-01T19:34:49;11.90;83.20
60033;DHT22;45905;50.570;10.428;2023-05-01T19:37:16;11.80;83.40
60033;DHT22;45905;50.570;10.428;2023-05-01T19:39:43;11.80;83.20
60033;DHT22;45905;50.570;10.428;2023-05-01T19:42:10;11.70;83.10
60033;DHT22;45905;50.570;10.428;2023-05-01T19:44:38;11.70;83.50
60033;DHT22;45905;50.570;10.428;2023-05-01T19:47:05;11.60;84.00
60033;DHT22;45905;50.570;10.428;2023-05-01T19:49:32;11.50;84.40
60033;DHT22;45905;50.570;10.428;2023-05-01T19:52:00;11.50;84.80
60033;DHT22;45905;50.570;10.428;2023-05-01T19:54:27;11.40;85.20
60033;DHT22;45905;50.570;10.428;2023-05-01T19:56:54;11.40;85.60
60033;DHT22;45905;50.570;10.428;2023-05-01T19:59:22;11.30;85.70